createdAt,value
2019-02-23T00:03:04.826Z,70.85
2019-02-23T00:07:13.081Z,69.99
2019-02-23T00:11:20.659Z,69.74
2019-02-23T00:15:28.379Z,69.69
2019-02-23T00:19:36.622Z,69.41
2019-02-23T00:23:44.297Z,69.29
2019-02-23T00:27:52.160Z,68.51
2019-02-23T00:32:00.012Z,67.51
2019-02-23T00:36:07.883Z,66.88
2019-02-23T00:40:15.634Z,66.12
2019-02-23T00:44:23.803Z,66.47
2019-02-23T00:48:31.446Z,66.46
2019-02-23T00:52:39.301Z,65.89
2019-02-23T00:56:47.164Z,64.99
2019-02-23T01:00:54.833Z,65.12
2019-02-23T01:05:03.413Z,64.56
2019-02-23T01:09:11.585Z,63.09
2019-02-23T01:13:19.329Z,62.31
2019-02-23T01:17:27.561Z,61.62
2019-02-23T01:21:35.400Z,61.65
2019-02-23T01:25:43.188Z,62.24
2019-02-23T01:29:51.303Z,63.37
2019-02-23T01:34:00.132Z,61.49
2019-02-23T01:38:08.455Z,61.71
2019-02-23T01:42:16.301Z,60.93
2019-02-23T01:46:23.868Z,59.62
2019-02-23T01:50:32.188Z,58.06
2019-02-23T01:54:40.304Z,59.75
2019-02-23T01:58:48.363Z,56.01
2019-02-23T02:02:56.320Z,58.40
2019-02-23T02:07:04.746Z,55.40
2019-02-23T02:11:12.652Z,53.41
2019-02-23T02:15:20.598Z,54.92
2019-02-23T02:19:28.358Z,55.14
2019-02-23T02:23:35.985Z,53.08
2019-02-23T02:27:44.357Z,52.29
2019-02-23T02:31:52.214Z,54.72
2019-02-23T02:35:59.890Z,55.17
2019-02-23T02:40:08.274Z,56.49
2019-02-23T02:44:15.973Z,58.55
2019-02-23T02:48:24.100Z,57.66
2019-02-23T02:52:32.347Z,58.11
2019-02-23T02:56:39.900Z,59.42
2019-02-23T03:00:47.921Z,59.75
2019-02-23T03:04:56.098Z,59.31
2019-02-23T03:09:04.208Z,60.19
2019-02-23T03:13:12.597Z,59.70
2019-02-23T03:17:20.295Z,60.54
2019-02-23T03:21:29.026Z,60.94
2019-02-23T03:25:37.255Z,59.16
2019-02-23T03:29:45.060Z,58.29
2019-02-23T03:33:52.554Z,59.45
2019-02-23T03:38:00.381Z,57.58
2019-02-23T03:42:08.568Z,58.62
2019-02-23T03:46:16.189Z,58.05
2019-02-23T03:50:24.206Z,59.71
2019-02-23T03:54:32.044Z,57.67
2019-02-23T03:58:39.838Z,57.82
2019-02-23T04:02:48.791Z,57.38
2019-02-23T04:06:56.369Z,56.32
2019-02-23T04:11:05.526Z,55.18
2019-02-23T04:15:13.324Z,55.14
2019-02-23T04:19:20.941Z,56.18
2019-02-23T04:23:29.656Z,57.47
2019-02-23T04:27:38.044Z,55.52
2019-02-23T04:31:46.653Z,54.79
2019-02-23T04:35:54.616Z,55.03
2019-02-23T04:40:02.833Z,54.31
2019-02-23T04:44:10.456Z,54.69
2019-02-23T04:48:18.273Z,56.56
2019-02-23T04:52:25.871Z,55.59
2019-02-23T04:56:35.009Z,56.54
2019-02-23T05:00:44.990Z,57.08
2019-02-23T05:04:52.679Z,56.67
2019-02-23T05:09:00.926Z,57.21
2019-02-23T05:13:10.457Z,56.94
2019-02-23T05:17:17.977Z,58.36
2019-02-23T05:21:26.935Z,57.94
2019-02-23T05:25:34.889Z,57.82
2019-02-23T05:29:42.505Z,58.95
2019-02-23T05:33:50.515Z,57.77
2019-02-23T05:37:58.326Z,57.79
2019-02-23T05:42:06.177Z,56.93
2019-02-23T05:46:14.041Z,56.71
2019-02-23T05:50:21.572Z,57.95
2019-02-23T05:54:29.354Z,56.43
2019-02-23T05:58:37.570Z,56.37
2019-02-23T06:02:45.403Z,56.36
2019-02-23T06:06:53.706Z,55.46
2019-02-23T06:11:02.006Z,56.11
2019-02-23T06:15:12.227Z,56.44
2019-02-23T06:19:20.417Z,56.41
2019-02-23T06:23:28.545Z,56.02
2019-02-23T06:27:36.134Z,55.30
2019-02-23T06:31:43.805Z,54.95
2019-02-23T06:35:52.059Z,55.10
2019-02-23T06:39:59.973Z,54.69
2019-02-23T06:44:08.193Z,54.89
2019-02-23T06:48:19.781Z,55.28
2019-02-23T06:52:26.399Z,54.40
2019-02-23T06:56:34.202Z,55.16
2019-02-23T07:00:41.999Z,53.84
2019-02-23T07:04:49.820Z,54.17
2019-02-23T07:08:58.946Z,54.35
2019-02-23T07:13:07.357Z,54.57
2019-02-23T07:17:16.013Z,53.78
2019-02-23T07:21:23.716Z,53.60
2019-02-23T07:25:33.587Z,53.23
2019-02-23T07:29:42.095Z,52.99
2019-02-23T07:33:49.801Z,53.08
2019-02-23T07:37:57.631Z,52.49
2019-02-23T07:42:05.908Z,53.27
2019-02-23T07:46:13.708Z,53.12
2019-02-23T07:50:21.451Z,52.08
2019-02-23T07:54:29.275Z,52.39
2019-02-23T07:58:37.181Z,52.46
2019-02-23T08:02:45.556Z,53.32
2019-02-23T08:06:53.482Z,53.56
2019-02-23T08:11:01.835Z,53.17
2019-02-23T08:15:10.075Z,53.01
2019-02-23T08:19:17.806Z,52.76
2019-02-23T08:23:25.774Z,53.44
2019-02-23T08:27:34.507Z,51.30
2019-02-23T08:31:42.926Z,52.64
2019-02-23T08:35:50.664Z,52.59
2019-02-23T08:39:58.367Z,52.15
2019-02-23T08:44:06.506Z,51.31
2019-02-23T08:48:14.252Z,51.66
2019-02-23T08:52:22.095Z,50.61
2019-02-23T08:56:31.016Z,51.04
2019-02-23T09:00:38.732Z,48.96
2019-02-23T09:04:46.538Z,49.60
2019-02-23T09:08:54.286Z,48.84
2019-02-23T09:13:02.253Z,47.71
2019-02-23T09:17:10.587Z,47.78
2019-02-23T09:21:18.202Z,47.55
2019-02-23T09:25:26.834Z,46.40
2019-02-23T09:29:35.029Z,47.65
2019-02-23T09:33:43.047Z,46.79
2019-02-23T09:37:51.268Z,46.57
2019-02-23T09:42:07.210Z,46.32
2019-02-23T09:46:08.846Z,45.42
2019-02-23T09:50:17.992Z,45.60
2019-02-23T09:54:25.432Z,45.92
2019-02-23T09:58:33.985Z,46.84
2019-02-23T10:02:43.247Z,47.93
2019-02-23T10:06:51.011Z,50.10
2019-02-23T10:10:58.854Z,47.75
2019-02-23T10:15:06.921Z,49.20
2019-02-23T10:19:14.585Z,52.86
2019-02-23T10:23:22.543Z,48.94
2019-02-23T10:27:31.159Z,49.07
2019-02-23T10:31:39.080Z,52.12
2019-02-23T10:35:47.694Z,50.01
2019-02-23T10:39:55.401Z,49.12
2019-02-23T10:44:03.075Z,47.76
2019-02-23T10:48:11.300Z,48.11
2019-02-23T10:52:19.034Z,46.24
2019-02-23T10:56:26.535Z,50.56
2019-02-23T11:00:34.335Z,47.97
2019-02-23T11:04:41.954Z,51.57
2019-02-23T11:08:50.230Z,50.39
2019-02-23T11:12:58.498Z,50.70
2019-02-23T11:17:06.401Z,51.04
2019-02-23T11:21:15.003Z,49.61
2019-02-23T11:25:22.840Z,48.14
2019-02-23T11:29:30.637Z,49.07
2019-02-23T11:33:38.764Z,50.70
2019-02-23T11:37:46.819Z,55.97
2019-02-23T11:41:55.409Z,56.91
2019-02-23T11:46:03.309Z,51.34
2019-02-23T11:50:11.427Z,50.45
2019-02-23T11:54:19.453Z,50.20
2019-02-23T11:58:27.149Z,49.48
2019-02-23T12:02:35.039Z,47.33
2019-02-23T12:06:43.023Z,50.17
2019-02-23T12:10:51.274Z,48.98
2019-02-23T12:14:59.581Z,49.60
2019-02-23T12:19:07.341Z,50.85
2019-02-23T12:23:14.876Z,51.43
2019-02-23T12:27:22.642Z,52.72
2019-02-23T12:31:30.757Z,48.41
2019-02-23T12:35:38.569Z,49.53
2019-02-23T12:39:46.365Z,51.37
2019-02-23T12:43:54.697Z,49.58
2019-02-23T12:48:02.502Z,51.70
2019-02-23T12:52:10.400Z,52.54
2019-02-23T12:56:18.542Z,56.26
2019-02-23T13:00:26.332Z,54.24
2019-02-23T13:04:34.266Z,53.44
2019-02-23T13:09:33.868Z,51.69
2019-02-23T13:14:13.975Z,52.20
2019-02-23T13:19:30.059Z,53.00
2019-02-23T13:24:09.795Z,52.77
2019-02-23T13:28:31.540Z,53.46
2019-02-23T13:33:41.624Z,53.00
2019-02-23T13:38:06.050Z,55.06
2019-02-23T13:42:45.482Z,56.50
2019-02-23T13:47:20.012Z,55.65
2019-02-23T13:51:50.556Z,51.97
2019-02-23T13:56:38.713Z,51.50
2019-02-23T14:01:33.730Z,55.45
2019-02-23T14:06:26.059Z,51.58
2019-02-23T14:11:01.841Z,53.17
2019-02-23T14:15:52.664Z,53.52
2019-02-23T14:20:48.903Z,54.02
2019-02-23T14:25:44.264Z,53.71
2019-02-23T14:30:21.316Z,54.26
2019-02-23T14:35:12.353Z,53.69
2019-02-23T14:40:05.821Z,52.91
2019-02-23T14:44:42.136Z,54.84
2019-02-23T14:49:34.458Z,54.23
2019-02-23T14:54:41.369Z,54.44
2019-02-23T14:59:30.084Z,54.75
2019-02-23T15:04:33.535Z,54.51
2019-02-23T15:09:09.912Z,54.69
2019-02-23T15:13:48.146Z,55.98
2019-02-23T15:18:48.486Z,56.82
2019-02-23T15:23:47.089Z,59.96
2019-02-23T15:28:50.700Z,59.00
2019-02-23T15:33:20.628Z,59.21
2019-02-23T15:37:37.724Z,58.91
2019-02-23T15:42:38.262Z,59.29
2019-02-23T15:47:08.964Z,58.23
2019-02-23T15:51:17.086Z,59.02
2019-02-23T15:55:28.816Z,59.84
2019-02-23T15:59:34.467Z,59.25
2019-02-23T16:03:42.224Z,58.61
2019-02-23T16:07:50.338Z,59.67
2019-02-23T16:11:58.331Z,59.32
2019-02-23T16:16:06.058Z,61.35
2019-02-23T16:20:13.879Z,61.24
2019-02-23T16:24:21.995Z,61.66
2019-02-23T16:28:29.778Z,61.51
2019-02-23T16:32:37.786Z,58.44
2019-02-23T16:36:55.839Z,60.74
2019-02-23T16:41:03.675Z,58.23
2019-02-23T16:45:11.718Z,59.71
2019-02-23T16:49:19.571Z,60.41
2019-02-23T16:53:27.370Z,59.78
2019-02-23T16:57:36.317Z,58.26
2019-02-23T17:01:44.195Z,60.77
2019-02-23T17:05:52.117Z,61.36
2019-02-23T17:09:59.726Z,60.47
2019-02-23T17:14:08.457Z,61.45
2019-02-23T17:18:16.460Z,61.39
2019-02-23T17:22:24.564Z,62.22
2019-02-23T17:26:32.372Z,63.07
2019-02-23T17:30:40.674Z,63.09
2019-02-23T17:34:48.707Z,62.86
2019-02-23T17:38:56.828Z,62.74
2019-02-23T17:43:05.175Z,62.83
2019-02-23T17:47:12.867Z,64.28
2019-02-23T17:51:21.695Z,63.52
2019-02-23T17:55:29.405Z,63.92
2019-02-23T17:59:37.113Z,63.97
2019-02-23T18:03:45.328Z,63.86
2019-02-23T18:07:53.061Z,64.75
2019-02-23T18:12:01.067Z,65.35
2019-02-23T18:16:09.271Z,66.22
2019-02-23T18:20:17.155Z,64.91
2019-02-23T18:24:25.076Z,65.57
2019-02-23T18:28:32.917Z,65.10
2019-02-23T18:32:40.699Z,66.00
2019-02-23T18:36:49.047Z,66.28
2019-02-23T18:40:57.246Z,67.16
2019-02-23T18:45:04.958Z,65.12
2019-02-23T18:49:13.817Z,64.85
2019-02-23T18:53:24.985Z,65.72
2019-02-23T18:57:32.794Z,65.61
2019-02-23T19:01:40.800Z,64.02
2019-02-23T19:05:50.057Z,64.26
2019-02-23T19:09:58.882Z,65.02
2019-02-23T19:14:06.689Z,64.68
2019-02-23T19:18:14.452Z,64.96
2019-02-23T19:22:22.511Z,65.18
2019-02-23T19:26:37.966Z,64.46
2019-02-23T19:30:40.185Z,63.42
2019-02-23T19:34:48.120Z,64.79
2019-02-23T19:38:56.428Z,64.04
2019-02-23T19:43:04.352Z,64.41
2019-02-23T19:47:20.311Z,65.09
2019-02-23T19:51:28.227Z,64.72
2019-02-23T19:55:36.035Z,64.97
2019-02-23T19:59:44.256Z,64.89
2019-02-23T20:03:52.351Z,64.79
2019-02-23T20:08:00.194Z,65.52
2019-02-23T20:12:08.308Z,65.30
2019-02-23T20:16:16.109Z,65.45
2019-02-23T20:20:23.870Z,64.96
2019-02-23T20:24:32.458Z,65.90
2019-02-23T20:28:40.464Z,65.78
2019-02-23T20:32:48.173Z,65.96
2019-02-23T20:36:56.219Z,64.96
2019-02-23T20:41:04.402Z,65.83
2019-02-23T20:45:12.528Z,65.81
2019-02-23T20:49:20.838Z,65.63
2019-02-23T20:53:28.973Z,66.00
2019-02-23T20:57:37.150Z,65.15
2019-02-23T21:01:45.406Z,66.06
2019-02-23T21:05:53.120Z,66.59
2019-02-23T21:10:01.322Z,66.32
2019-02-23T21:14:09.526Z,66.71
2019-02-23T21:18:17.350Z,66.60
2019-02-23T21:22:25.055Z,66.59
2019-02-23T21:26:33.190Z,67.22
2019-02-23T21:30:42.804Z,67.29
2019-02-23T21:34:51.683Z,67.46
2019-02-23T21:38:59.493Z,67.51
2019-02-23T21:43:07.414Z,67.94
2019-02-23T21:47:17.156Z,67.82
2019-02-23T21:51:24.839Z,67.92
2019-02-23T21:55:32.462Z,67.56
2019-02-23T21:59:40.889Z,68.07
2019-02-23T22:03:48.585Z,67.64
2019-02-23T22:07:56.304Z,67.68
2019-02-23T22:12:04.406Z,67.37
2019-02-23T22:16:12.353Z,67.28
2019-02-23T22:20:20.527Z,67.79
2019-02-23T22:24:28.662Z,67.52
2019-02-23T22:28:37.325Z,67.48
2019-02-23T22:32:45.608Z,67.79
2019-02-23T22:36:54.325Z,67.84
2019-02-23T22:41:01.957Z,67.77
2019-02-23T22:45:10.172Z,68.08
2019-02-23T22:49:17.986Z,68.51
2019-02-23T22:53:25.993Z,68.33
2019-02-23T22:57:40.240Z,68.08
2019-02-23T23:01:44.239Z,68.57
2019-02-23T23:05:53.631Z,68.39
2019-02-23T23:10:01.541Z,67.92
2019-02-23T23:14:10.780Z,68.23
2019-02-23T23:18:18.975Z,68.22
2019-02-23T23:22:27.198Z,68.52
2019-02-23T23:26:34.737Z,68.42
2019-02-23T23:30:42.820Z,68.40
2019-02-23T23:34:50.757Z,68.92
2019-02-23T23:38:58.944Z,68.91
2019-02-23T23:43:07.884Z,69.23
2019-02-23T23:47:16.011Z,68.87
2019-02-23T23:51:23.807Z,68.47
2019-02-23T23:55:32.145Z,68.54
2019-02-23T23:59:40.159Z,69.32
